createdAt,value
2022-08-22T00:01:08.532Z,18.66
2022-08-22T00:02:54.938Z,18.90
2022-08-22T00:03:06.551Z,18.77
2022-08-22T00:04:15.873Z,18.63
2022-08-22T00:07:42.299Z,18.71
2022-08-22T00:11:09.767Z,18.61
2022-08-22T00:14:15.540Z,18.68
2022-08-22T00:17:20.575Z,18.56
2022-08-22T00:20:34.122Z,18.65
2022-08-22T00:23:43.840Z,18.58
2022-08-22T00:26:49.313Z,18.51
2022-08-22T00:30:11.663Z,18.52
2022-08-22T00:33:30.863Z,18.45
2022-08-22T00:36:56.689Z,18.47
2022-08-22T00:40:34.571Z,18.52
2022-08-22T00:44:00.923Z,18.55
2022-08-22T00:47:31.388Z,18.51
2022-08-22T00:50:59.586Z,18.51
2022-08-22T00:54:18.287Z,18.56
2022-08-22T00:57:26.953Z,18.55
2022-08-22T01:00:35.280Z,18.68
2022-08-22T01:03:44.801Z,18.66
2022-08-22T01:07:03.656Z,18.58
2022-08-22T01:10:33.172Z,18.47
2022-08-22T01:14:08.272Z,18.58
2022-08-22T01:17:32.978Z,18.53
2022-08-22T01:20:35.320Z,18.56
2022-08-22T01:24:02.085Z,18.47
2022-08-22T01:27:31.749Z,18.56
2022-08-22T01:30:52.359Z,18.40
2022-08-22T01:34:15.881Z,18.40
2022-08-22T01:37:55.655Z,18.42
2022-08-22T01:41:13.211Z,18.34
2022-08-22T01:44:27.599Z,18.32
2022-08-22T01:47:40.068Z,18.37
2022-08-22T01:50:51.025Z,18.40
2022-08-22T01:54:13.624Z,18.42
2022-08-22T01:57:17.093Z,18.48
2022-08-22T02:00:20.791Z,18.42
2022-08-22T02:04:01.099Z,18.31
2022-08-22T02:07:09.078Z,18.45
2022-08-22T02:10:25.482Z,18.41
2022-08-22T02:13:36.910Z,18.38
2022-08-22T02:16:42.540Z,18.44
2022-08-22T02:20:15.027Z,18.41
2022-08-22T02:23:46.879Z,18.30
2022-08-22T02:27:12.375Z,18.44
2022-08-22T02:30:21.921Z,18.22
2022-08-22T02:33:39.372Z,18.35
2022-08-22T02:36:51.856Z,18.42
2022-08-22T02:40:05.144Z,18.32
2022-08-22T02:43:13.319Z,18.34
2022-08-22T02:46:28.143Z,18.32
2022-08-22T02:49:54.248Z,18.34
2022-08-22T02:53:03.737Z,18.38
2022-08-22T02:56:22.430Z,18.52
2022-08-22T02:59:27.566Z,18.45
2022-08-22T03:02:34.615Z,18.52
2022-08-22T03:05:36.966Z,18.42
2022-08-22T03:09:00.179Z,18.34
2022-08-22T03:12:38.894Z,18.32
2022-08-22T03:15:59.647Z,18.38
2022-08-22T03:19:04.987Z,18.38
2022-08-22T03:22:23.963Z,18.48
2022-08-22T03:25:50.598Z,18.48
2022-08-22T03:29:00.684Z,18.51
2022-08-22T03:32:13.549Z,18.49
2022-08-22T03:35:42.345Z,18.47
2022-08-22T03:39:08.182Z,18.38
2022-08-22T03:42:43.261Z,18.48
2022-08-22T03:46:34.279Z,18.45
2022-08-22T03:49:52.993Z,18.47
2022-08-22T03:53:23.215Z,18.38
2022-08-22T03:56:40.943Z,18.37
2022-08-22T04:00:10.146Z,18.45
2022-08-22T04:03:56.888Z,18.45
2022-08-22T04:07:28.436Z,18.49
2022-08-22T04:10:37.596Z,18.45
2022-08-22T04:13:54.764Z,18.51
2022-08-22T04:17:20.486Z,18.51
2022-08-22T04:20:47.243Z,18.56
2022-08-22T04:24:01.459Z,18.58
2022-08-22T04:27:15.943Z,18.63
2022-08-22T04:30:31.567Z,18.72
2022-08-22T04:33:38.006Z,18.66
2022-08-22T04:36:46.118Z,18.69
2022-08-22T04:40:07.779Z,18.68
2022-08-22T04:43:30.703Z,18.73
2022-08-22T04:46:41.629Z,18.81
2022-08-22T04:49:50.773Z,18.82
2022-08-22T04:53:23.479Z,18.90
2022-08-22T04:56:38.119Z,18.75
2022-08-22T04:59:42.721Z,18.79
2022-08-22T05:02:57.823Z,18.85
2022-08-22T05:06:03.424Z,18.99
2022-08-22T05:09:16.168Z,19.06
2022-08-22T05:12:32.888Z,19.13
2022-08-22T05:15:41.643Z,19.09
2022-08-22T05:18:50.207Z,19.10
2022-08-22T05:21:52.907Z,19.16
2022-08-22T05:25:02.027Z,19.26
2022-08-22T05:28:13.595Z,19.43
2022-08-22T05:31:23.210Z,19.50
2022-08-22T05:34:32.841Z,19.41
2022-08-22T05:37:47.490Z,19.44
2022-08-22T05:41:03.348Z,19.61
2022-08-22T05:44:15.472Z,19.60
2022-08-22T05:47:33.467Z,19.53
2022-08-22T05:50:43.315Z,19.47
2022-08-22T05:53:51.230Z,19.33
2022-08-22T05:57:07.434Z,19.19
2022-08-22T06:00:17.298Z,19.26
2022-08-22T06:03:34.115Z,19.38
2022-08-22T06:06:59.998Z,19.28
2022-08-22T06:10:08.415Z,19.23
2022-08-22T06:13:33.211Z,19.23
2022-08-22T06:16:48.660Z,19.30
2022-08-22T06:19:54.127Z,19.40
2022-08-22T06:23:01.846Z,19.49
2022-08-22T06:26:06.691Z,19.71
2022-08-22T06:29:46.676Z,20.26
2022-08-22T06:32:58.893Z,20.18
2022-08-22T06:36:30.607Z,20.25
2022-08-22T06:39:36.615Z,20.26
2022-08-22T06:42:45.126Z,20.23
2022-08-22T06:45:48.738Z,20.37
2022-08-22T06:48:54.331Z,20.37
2022-08-22T06:52:03.656Z,20.33
2022-08-22T06:55:07.980Z,20.45
2022-08-22T06:58:18.190Z,20.37
2022-08-22T07:01:29.865Z,20.47
2022-08-22T07:04:32.456Z,20.33
2022-08-22T07:07:36.136Z,20.18
2022-08-22T07:10:49.149Z,20.05
2022-08-22T07:14:00.092Z,20.19
2022-08-22T07:17:05.406Z,20.45
2022-08-22T07:20:35.142Z,20.64
2022-08-22T07:23:44.604Z,20.50
2022-08-22T07:27:31.436Z,20.57
2022-08-22T07:31:03.382Z,20.05
2022-08-22T07:34:14.786Z,20.23
2022-08-22T07:37:31.864Z,20.25
2022-08-22T07:41:09.867Z,20.32
2022-08-22T07:44:18.046Z,20.45
2022-08-22T07:47:26.260Z,20.23
2022-08-22T07:50:34.398Z,20.05
2022-08-22T07:53:39.456Z,20.36
2022-08-22T07:56:46.745Z,20.50
2022-08-22T07:59:53.676Z,20.74
2022-08-22T08:03:06.172Z,20.83
2022-08-22T08:06:10.100Z,20.73
2022-08-22T08:09:16.815Z,20.59
2022-08-22T08:12:24.656Z,21.03
2022-08-22T08:15:27.277Z,21.34
2022-08-22T08:18:34.000Z,21.79
2022-08-22T08:21:49.936Z,22.12
2022-08-22T08:24:55.983Z,22.48
2022-08-22T08:28:18.597Z,22.68
2022-08-22T08:31:38.165Z,22.68
2022-08-22T08:34:52.278Z,22.88
2022-08-22T08:38:08.852Z,22.97
2022-08-22T08:41:32.711Z,22.92
2022-08-22T08:44:41.640Z,22.53
2022-08-22T08:48:05.236Z,21.92
2022-08-22T08:51:25.484Z,21.30
2022-08-22T08:54:58.391Z,21.01
2022-08-22T08:58:43.473Z,21.30
2022-08-22T09:02:23.726Z,21.61
2022-08-22T09:05:54.055Z,21.89
2022-08-22T09:09:33.151Z,21.85
2022-08-22T09:13:12.504Z,22.10
2022-08-22T09:16:51.609Z,22.07
2022-08-22T09:20:20.133Z,21.81
2022-08-22T09:23:59.252Z,21.49
2022-08-22T09:27:37.087Z,21.35
2022-08-22T09:30:54.256Z,21.25
2022-08-22T09:34:23.984Z,21.21
2022-08-22T09:38:02.712Z,21.27
2022-08-22T09:41:11.143Z,21.52
2022-08-22T09:44:33.162Z,21.90
2022-08-22T09:47:57.218Z,22.24
2022-08-22T09:51:31.803Z,22.67
2022-08-22T09:54:46.167Z,22.61
2022-08-22T09:58:15.099Z,22.87
2022-08-22T10:01:32.747Z,22.88
2022-08-22T10:04:40.715Z,23.02
2022-08-22T10:08:06.519Z,23.16
2022-08-22T10:11:34.416Z,23.20
2022-08-22T10:15:13.972Z,23.11
2022-08-22T10:18:31.015Z,23.11
2022-08-22T10:21:39.689Z,22.99
2022-08-22T10:24:47.858Z,22.90
2022-08-22T10:28:23.892Z,22.67
2022-08-22T10:31:33.859Z,22.64
2022-08-22T10:34:42.918Z,22.43
2022-08-22T10:38:00.492Z,22.14
2022-08-22T10:41:37.531Z,22.10
2022-08-22T10:45:13.882Z,22.23
2022-08-22T10:48:39.665Z,22.41
2022-08-22T10:51:51.882Z,22.58
2022-08-22T10:55:13.523Z,22.88
2022-08-22T10:58:24.963Z,22.69
2022-08-22T11:01:48.633Z,22.77
2022-08-22T11:05:09.281Z,22.97
2022-08-22T11:08:52.193Z,23.55
2022-08-22T11:11:58.173Z,23.92
2022-08-22T11:15:34.796Z,24.16
2022-08-22T11:19:14.996Z,24.37
2022-08-22T11:22:33.970Z,24.06
2022-08-22T11:26:14.982Z,23.60
2022-08-22T11:29:35.770Z,23.57
2022-08-22T11:32:59.596Z,23.46
2022-08-22T11:36:18.825Z,23.32
2022-08-22T11:39:38.933Z,23.36
2022-08-22T11:42:49.497Z,23.39
2022-08-22T11:45:56.727Z,23.41
2022-08-22T11:49:18.912Z,23.06
2022-08-22T11:52:24.298Z,22.99
2022-08-22T11:55:53.804Z,23.06
2022-08-22T11:58:59.814Z,22.99
2022-08-22T12:02:10.926Z,23.01
2022-08-22T12:05:24.489Z,23.06
2022-08-22T12:08:35.411Z,23.02
2022-08-22T12:12:19.044Z,23.12
2022-08-22T12:15:27.748Z,23.08
2022-08-22T12:18:45.223Z,22.83
2022-08-22T12:22:08.958Z,22.64
2022-08-22T12:25:29.640Z,22.74
2022-08-22T12:28:54.135Z,22.75
2022-08-22T12:32:45.736Z,22.69
2022-08-22T12:35:57.177Z,22.90
2022-08-22T12:39:28.781Z,23.11
2022-08-22T12:42:49.405Z,23.19
2022-08-22T12:46:13.075Z,23.12
2022-08-22T12:49:30.617Z,23.19
2022-08-22T12:52:41.906Z,23.32
2022-08-22T12:56:01.886Z,23.19
2022-08-22T12:59:43.218Z,23.22
2022-08-22T13:02:46.732Z,23.05
2022-08-22T13:05:56.838Z,22.99
2022-08-22T13:09:19.917Z,22.92
2022-08-22T13:12:40.119Z,22.94
2022-08-22T13:15:56.674Z,22.83
2022-08-22T13:19:13.741Z,22.83
2022-08-22T13:22:21.620Z,22.84
2022-08-22T13:25:26.938Z,22.84
2022-08-22T13:28:33.359Z,22.98
2022-08-22T13:31:38.934Z,23.14
2022-08-22T13:34:52.656Z,23.01
2022-08-22T13:38:05.000Z,22.87
2022-08-22T13:41:09.052Z,22.77
2022-08-22T13:44:21.263Z,22.41
2022-08-22T13:47:26.995Z,22.30
2022-08-22T13:50:53.402Z,21.86
2022-08-22T13:54:12.158Z,21.78
2022-08-22T13:57:24.618Z,21.69
2022-08-22T14:00:35.860Z,21.83
2022-08-22T14:03:48.520Z,22.05
2022-08-22T14:06:56.892Z,22.16
2022-08-22T14:10:18.295Z,22.30
2022-08-22T14:13:45.367Z,22.40
2022-08-22T14:16:50.923Z,22.48
2022-08-22T14:20:01.510Z,22.69
2022-08-22T14:23:16.296Z,22.78
2022-08-22T14:26:47.350Z,22.98
2022-08-22T14:29:57.763Z,23.02
2022-08-22T14:33:22.252Z,22.75
2022-08-22T14:36:49.001Z,22.74
2022-08-22T14:40:13.396Z,22.50
2022-08-22T14:43:35.672Z,22.50
2022-08-22T14:46:46.672Z,22.33
2022-08-22T14:49:59.533Z,22.18
2022-08-22T14:53:11.958Z,22.24
2022-08-22T14:56:14.737Z,22.10
2022-08-22T14:59:43.958Z,22.23
2022-08-22T15:02:46.661Z,22.16
2022-08-22T15:05:51.259Z,22.16
2022-08-22T15:08:53.910Z,22.12
2022-08-22T15:11:56.454Z,22.20
2022-08-22T15:15:01.932Z,22.21
2022-08-22T15:18:17.687Z,22.17
2022-08-22T15:21:26.167Z,22.17
2022-08-22T15:24:28.765Z,22.16
2022-08-22T15:27:34.459Z,22.18
2022-08-22T15:30:44.055Z,21.96
2022-08-22T15:33:48.643Z,22.05
2022-08-22T15:37:07.799Z,21.93
2022-08-22T15:40:30.900Z,21.89
2022-08-22T15:43:36.338Z,21.78
2022-08-22T15:46:58.090Z,21.69
2022-08-22T15:50:05.430Z,21.81
2022-08-22T15:53:40.137Z,21.83
2022-08-22T15:57:15.350Z,21.86
2022-08-22T16:00:24.608Z,21.95
2022-08-22T16:03:34.317Z,21.92
2022-08-22T16:06:54.542Z,21.88
2022-08-22T16:09:59.617Z,21.85
2022-08-22T16:13:16.077Z,21.71
2022-08-22T16:16:55.679Z,21.72
2022-08-22T16:20:15.877Z,21.66
2022-08-22T16:23:22.756Z,21.58
2022-08-22T16:26:31.167Z,21.54
2022-08-22T16:29:41.405Z,21.41
2022-08-22T16:32:52.334Z,21.41
2022-08-22T16:36:18.920Z,21.41
2022-08-22T16:39:21.435Z,21.32
2022-08-22T16:42:27.268Z,21.34
2022-08-22T16:45:40.955Z,21.27
2022-08-22T16:48:45.410Z,21.30
2022-08-22T16:52:24.849Z,21.25
2022-08-22T16:55:30.099Z,21.25
2022-08-22T16:59:23.595Z,21.28
2022-08-22T17:02:43.486Z,21.30
2022-08-22T17:06:10.310Z,21.31
2022-08-22T17:09:46.396Z,21.18
2022-08-22T17:13:09.800Z,21.27
2022-08-22T17:16:26.923Z,21.15
2022-08-22T17:19:59.513Z,21.14
2022-08-22T17:23:39.352Z,21.24
2022-08-22T17:26:56.512Z,21.18
2022-08-22T17:30:28.615Z,21.21
2022-08-22T17:34:04.706Z,21.23
2022-08-22T17:37:28.681Z,21.17
2022-08-22T17:40:43.051Z,21.20
2022-08-22T17:44:10.158Z,21.30
2022-08-22T17:47:18.067Z,21.24
2022-08-22T17:50:32.520Z,21.11
2022-08-22T17:53:53.512Z,21.14
2022-08-22T17:57:22.565Z,21.10
2022-08-22T18:00:41.755Z,21.20
2022-08-22T18:03:53.100Z,21.17
2022-08-22T18:07:26.971Z,21.11
2022-08-22T18:10:41.916Z,21.15
2022-08-22T18:14:05.210Z,21.08
2022-08-22T18:17:49.414Z,21.08
2022-08-22T18:21:03.634Z,21.04
2022-08-22T18:24:34.947Z,21.15
2022-08-22T18:27:51.058Z,21.17
2022-08-22T18:31:09.732Z,21.12
2022-08-22T18:34:25.406Z,20.88
2022-08-22T18:37:35.427Z,20.81
2022-08-22T18:40:50.222Z,20.94
2022-08-22T18:43:56.339Z,21.08
2022-08-22T18:47:12.607Z,20.97
2022-08-22T18:50:33.624Z,21.00
2022-08-22T18:53:46.176Z,21.04
2022-08-22T18:57:02.776Z,21.08
2022-08-22T19:00:14.612Z,20.93
2022-08-22T19:03:53.949Z,20.95
2022-08-22T19:07:08.275Z,21.01
2022-08-22T19:10:49.019Z,20.88
2022-08-22T19:13:59.254Z,20.70
2022-08-22T19:17:15.032Z,20.57
2022-08-22T19:20:51.719Z,20.67
2022-08-22T19:23:55.637Z,20.86
2022-08-22T19:27:18.251Z,20.94
2022-08-22T19:30:45.543Z,20.93
2022-08-22T19:34:09.788Z,20.84
2022-08-22T19:37:31.978Z,20.80
2022-08-22T19:40:50.307Z,20.87
2022-08-22T19:43:52.745Z,20.84
2022-08-22T19:47:24.356Z,20.83
2022-08-22T19:50:32.139Z,20.87
2022-08-22T19:53:56.267Z,20.73
2022-08-22T19:57:06.955Z,20.74
2022-08-22T20:00:22.778Z,20.72
2022-08-22T20:03:43.200Z,20.64
2022-08-22T20:07:15.045Z,20.67
2022-08-22T20:10:50.086Z,20.59
2022-08-22T20:14:22.524Z,20.67
2022-08-22T20:17:43.670Z,20.70
2022-08-22T20:20:59.891Z,20.67
2022-08-22T20:24:14.415Z,20.60
2022-08-22T20:27:29.620Z,20.67
2022-08-22T20:30:39.683Z,20.62
2022-08-22T20:33:46.158Z,20.60
2022-08-22T20:36:59.761Z,20.73
2022-08-22T20:40:51.874Z,20.57
2022-08-22T20:43:49.924Z,20.40
2022-08-22T20:47:00.422Z,20.37
2022-08-22T20:50:10.388Z,20.36
2022-08-22T20:53:17.495Z,20.39
2022-08-22T20:56:50.675Z,20.36
2022-08-22T21:00:19.248Z,20.22
2022-08-22T21:03:40.963Z,20.19
2022-08-22T21:06:43.359Z,20.11
2022-08-22T21:10:12.711Z,19.98
2022-08-22T21:13:23.192Z,20.12
2022-08-22T21:16:33.002Z,20.04
2022-08-22T21:19:35.444Z,20.11
2022-08-22T21:22:37.887Z,20.09
2022-08-22T21:26:00.917Z,20.09
2022-08-22T21:29:03.343Z,20.05
2022-08-22T21:32:14.495Z,20.04
2022-08-22T21:35:29.911Z,20.06
2022-08-22T21:38:32.419Z,20.04
2022-08-22T21:41:39.272Z,19.98
2022-08-22T21:44:43.675Z,20.06
2022-08-22T21:47:46.044Z,20.02
2022-08-22T21:50:48.524Z,20.05
2022-08-22T21:53:56.082Z,19.95
2022-08-22T21:57:17.264Z,19.94
2022-08-22T22:00:40.208Z,19.84
2022-08-22T22:03:51.056Z,19.82
2022-08-22T22:06:53.643Z,19.81
2022-08-22T22:09:56.699Z,19.82
2022-08-22T22:12:59.119Z,19.72
2022-08-22T22:16:01.592Z,19.75
2022-08-22T22:19:07.382Z,19.81
2022-08-22T22:22:09.804Z,19.74
2022-08-22T22:25:38.772Z,19.65
2022-08-22T22:28:39.234Z,19.74
2022-08-22T22:31:41.620Z,19.67
2022-08-22T22:34:44.536Z,19.67
2022-08-22T22:37:56.050Z,19.65
2022-08-22T22:40:58.480Z,19.68
2022-08-22T22:44:01.599Z,19.70
2022-08-22T22:47:04.231Z,19.63
2022-08-22T22:50:07.371Z,19.57
2022-08-22T22:53:11.288Z,19.57
2022-08-22T22:56:16.562Z,19.55
2022-08-22T22:59:18.978Z,19.51
2022-08-22T23:02:27.374Z,19.44
2022-08-22T23:05:30.638Z,19.30
2022-08-22T23:08:33.140Z,19.35
2022-08-22T23:11:35.766Z,19.31
2022-08-22T23:14:38.132Z,19.30
2022-08-22T23:17:41.258Z,19.35
2022-08-22T23:20:43.648Z,19.30
2022-08-22T23:23:46.959Z,19.33
2022-08-22T23:26:49.668Z,19.35
2022-08-22T23:29:52.099Z,19.35
2022-08-22T23:32:55.747Z,19.28
2022-08-22T23:35:59.976Z,19.28
2022-08-22T23:39:05.533Z,19.27
2022-08-22T23:42:09.914Z,19.34
2022-08-22T23:45:12.393Z,19.27
2022-08-22T23:48:14.781Z,19.33
2022-08-22T23:51:22.339Z,19.28
2022-08-22T23:54:25.707Z,19.33
2022-08-22T23:57:29.544Z,19.30
